Time;durP1;ratioP1;P1;durP2;ratioP2;P2;SDS_P1;SDS_P2;PMS_P1;PMS_P2;Temp;Humidity;BMP_temperature;BMP_pressure;BME280_temperature;BME280_humidity;BME280_pressure;Samples;Min_cycle;Max_cycle;Signal;HPM_P1;HPM_P2
2023/06/30 00:01:48;;;;;;;9.73;8.50;;;20.90;99.90;;;;;;5077518;28;20951;-84
2023/06/30 00:04:22;;;;;;;9.48;8.40;;;20.90;99.90;;;;;;5080130;28;20386;-84
2023/06/30 00:06:49;;;;;;;9.40;8.33;;;20.90;99.90;;;;;;5095118;28;20439;-84
2023/06/30 00:09:18;;;;;;;9.65;8.23;;;20.90;99.90;;;;;;5060022;28;20785;-84
2023/06/30 00:11:44;;;;;;;9.32;8.35;;;20.90;99.90;;;;;;5086933;28;20457;-84
2023/06/30 00:14:09;;;;;;;9.63;8.63;;;20.90;99.90;;;;;;5097562;28;20521;-85
2023/06/30 00:16:35;;;;;;;9.93;7.90;;;20.90;99.90;;;;;;5097119;28;20394;-83
2023/06/30 00:19:04;;;;;;;9.33;8.30;;;21.10;99.90;;;;;;5079546;28;20564;-83
2023/06/30 00:21:29;;;;;;;9.15;8.25;;;21.20;99.90;;;;;;5098278;28;20370;-85
2023/06/30 00:24:01;;;;;;;9.43;8.10;;;21.30;99.90;;;;;;5079344;28;20462;-84
2023/06/30 00:26:28;;;;;;;10.60;8.90;;;21.40;99.90;;;;;;5099363;28;20378;-83
2023/06/30 00:28:54;;;;;;;9.00;8.10;;;21.50;99.90;;;;;;5093903;28;20403;-83
2023/06/30 00:31:20;;;;;;;11.37;9.33;;;21.50;99.90;;;;;;5095721;28;20403;-83
2023/06/30 00:33:45;;;;;;;10.98;8.50;;;21.60;99.90;;;;;;5081651;28;20743;-84
2023/06/30 00:36:11;;;;;;;9.32;8.43;;;21.60;99.90;;;;;;5055524;28;20422;-83
2023/06/30 00:38:36;;;;;;;11.67;8.90;;;21.60;99.90;;;;;;5090792;28;20442;-83
2023/06/30 00:41:02;;;;;;;10.73;8.40;;;21.80;99.90;;;;;;5096451;28;20381;-83
2023/06/30 00:43:27;;;;;;;9.60;8.40;;;21.60;99.90;;;;;;5078837;28;20382;-84
2023/06/30 00:45:53;;;;;;;9.65;8.75;;;21.60;99.90;;;;;;5096605;28;20386;-84
2023/06/30 00:48:19;;;;;;;11.37;8.60;;;21.60;99.90;;;;;;5077925;28;20482;-84
2023/06/30 00:50:45;;;;;;;9.65;7.82;;;21.50;99.90;;;;;;5096151;28;20393;-84
2023/06/30 00:53:12;;;;;;;9.23;8.43;;;21.40;99.90;;;;;;5096959;28;20393;-84
2023/06/30 00:55:39;;;;;;;9.20;8.07;;;21.40;99.90;;;;;;5095737;28;20396;-84
2023/06/30 00:58:05;;;;;;;10.35;8.63;;;21.30;99.90;;;;;;5099560;28;20474;-84
2023/06/30 01:00:31;;;;;;;11.73;8.18;;;21.20;99.90;;;;;;5081847;28;20429;-83
2023/06/30 01:03:11;;;;;;;12.07;9.20;;;21.20;99.90;;;;;;5105923;28;20438;-83
2023/06/30 01:05:59;;;;;;;9.80;8.80;;;21.00;99.90;;;;;;5079170;28;20529;-84
2023/06/30 01:08:49;;;;;;;11.18;9.18;;;20.70;99.90;;;;;;5096881;28;20370;-84
2023/06/30 01:11:15;;;;;;;10.20;9.20;;;20.30;99.90;;;;;;5062425;28;20793;-85
2023/06/30 01:13:42;;;;;;;11.77;10.68;;;20.80;99.90;;;;;;5078367;28;20402;-83
2023/06/30 01:16:09;;;;;;;13.25;10.30;;;19.40;99.90;;;;;;5077695;28;20398;-83
2023/06/30 01:18:36;;;;;;;12.20;11.00;;;19.70;99.90;;;;;;5096117;28;20446;-82
2023/06/30 01:21:04;;;;;;;11.95;10.40;;;19.80;99.90;;;;;;5078948;28;20386;-84
2023/06/30 01:23:34;;;;;;;12.10;10.10;;;19.60;99.90;;;;;;5078968;28;20451;-84
2023/06/30 01:26:02;;;;;;;12.20;11.00;;;19.60;99.90;;;;;;5077553;28;20424;-84
2023/06/30 01:28:28;;;;;;;11.70;10.50;;;19.70;99.90;;;;;;5089520;28;20399;-84
2023/06/30 01:30:56;;;;;;;12.70;11.13;;;19.60;99.90;;;;;;5057895;28;20384;-83
2023/06/30 01:33:22;;;;;;;13.30;10.38;;;19.40;99.90;;;;;;5076368;28;20757;-84
2023/06/30 01:35:47;;;;;;;12.90;11.35;;;19.20;99.90;;;;;;5075097;28;20383;-83
2023/06/30 01:38:13;;;;;;;13.30;11.30;;;19.40;99.90;;;;;;5058226;28;20392;-84
2023/06/30 01:40:39;;;;;;;15.10;11.97;;;19.40;99.90;;;;;;5058041;28;20911;-84
2023/06/30 01:43:05;;;;;;;12.90;11.60;;;19.30;99.90;;;;;;5076146;28;20376;-83
2023/06/30 01:45:31;;;;;;;12.95;11.65;;;19.40;99.90;;;;;;5057534;28;20380;-84
2023/06/30 01:47:57;;;;;;;12.43;11.05;;;19.40;99.90;;;;;;5081104;28;20756;-84
2023/06/30 01:50:23;;;;;;;13.00;11.70;;;19.70;99.90;;;;;;5078007;28;20385;-84
2023/06/30 01:52:49;;;;;;;12.47;11.17;;;19.40;99.90;;;;;;5078001;28;20455;-84
2023/06/30 01:55:15;;;;;;;13.73;11.80;;;19.40;99.90;;;;;;5078126;28;20473;-84
2023/06/30 01:57:41;;;;;;;12.25;10.95;;;20.10;99.90;;;;;;5094940;28;20467;-85
2023/06/30 02:00:07;;;;;;;13.13;11.80;;;19.40;99.90;;;;;;5096628;28;20382;-84
2023/06/30 02:02:32;;;;;;;13.10;11.70;;;19.40;99.90;;;;;;5096862;28;20553;-85
2023/06/30 02:04:58;;;;;;;11.53;10.43;;;19.40;99.90;;;;;;5077815;28;20402;-84
2023/06/30 02:07:24;;;;;;;12.70;11.50;;;19.40;99.90;;;;;;5089610;28;20438;-84
2023/06/30 02:09:49;;;;;;;12.60;11.40;;;19.50;99.90;;;;;;5091284;28;20455;-84
2023/06/30 02:12:16;;;;;;;11.65;10.45;;;19.50;99.90;;;;;;5080927;28;20396;-84
2023/06/30 02:14:41;;;;;;;12.82;11.48;;;20.00;99.90;;;;;;5107541;22;20433;-83
2023/06/30 02:17:10;;;;;;;13.35;11.95;;;19.40;99.90;;;;;;5095011;28;20845;-83
2023/06/30 02:19:36;;;;;;;13.63;11.77;;;19.30;99.90;;;;;;5060818;28;20380;-83
2023/06/30 02:22:01;;;;;;;12.15;10.85;;;19.40;99.90;;;;;;5079403;28;20387;-84
2023/06/30 02:24:27;;;;;;;13.00;11.60;;;19.30;99.90;;;;;;5058441;28;20769;-83
2023/06/30 02:26:52;;;;;;;12.53;11.33;;;19.40;99.90;;;;;;5077508;28;20388;-83
2023/06/30 02:29:20;;;;;;;12.30;10.70;;;19.30;99.90;;;;;;5078243;28;20394;-83
2023/06/30 02:31:46;;;;;;;12.40;10.95;;;19.30;99.90;;;;;;5079004;28;20434;-83
2023/06/30 02:34:11;;;;;;;12.90;10.90;;;19.80;99.90;;;;;;5058016;28;20385;-83
2023/06/30 02:36:37;;;;;;;12.40;11.20;;;19.30;99.90;;;;;;5048542;28;20474;-83
2023/06/30 02:39:03;;;;;;;12.93;11.63;;;19.30;99.90;;;;;;5059401;28;20445;-83
2023/06/30 02:41:28;;;;;;;11.90;10.60;;;19.30;99.90;;;;;;5055009;28;20785;-83
2023/06/30 02:43:54;;;;;;;13.98;12.10;;;19.30;99.90;;;;;;5072587;28;20440;-83
2023/06/30 02:46:19;;;;;;;11.90;10.70;;;19.30;99.90;;;;;;5084442;28;20379;-83
2023/06/30 02:48:45;;;;;;;11.97;10.77;;;19.30;99.90;;;;;;5084793;28;20383;-83
2023/06/30 02:51:10;;;;;;;12.05;10.85;;;19.30;99.90;;;;;;5042728;28;20430;-83
2023/06/30 02:53:36;;;;;;;12.13;10.93;;;19.30;99.90;;;;;;5060294;28;20393;-83
2023/06/30 02:56:01;;;;;;;11.48;10.38;;;19.40;99.90;;;;;;5058207;28;20459;-83
2023/06/30 02:58:27;;;;;;;12.10;10.80;;;19.40;99.90;;;;;;5040890;28;20588;-83
2023/06/30 03:00:55;;;;;;;12.20;10.90;;;19.40;99.90;;;;;;5042218;28;20920;-83
2023/06/30 03:03:20;;;;;;;11.63;10.43;;;19.40;99.90;;;;;;5080911;28;20397;-83
2023/06/30 03:05:46;;;;;;;12.70;10.67;;;19.40;99.90;;;;;;5079300;28;21182;-83
2023/06/30 03:08:11;;;;;;;12.13;10.20;;;19.40;99.90;;;;;;5061817;28;20403;-83
2023/06/30 03:10:37;;;;;;;10.50;9.40;;;19.40;99.90;;;;;;5082698;28;20402;-83
2023/06/30 03:13:03;;;;;;;12.18;10.88;;;19.40;99.90;;;;;;5078063;28;20403;-83
2023/06/30 03:15:28;;;;;;;11.75;10.32;;;19.90;99.90;;;;;;5060429;28;20407;-84
2023/06/30 03:17:55;;;;;;;12.37;10.70;;;19.50;99.90;;;;;;5077726;28;20414;-84
2023/06/30 03:20:21;;;;;;;12.68;11.38;;;19.60;99.90;;;;;;5077969;28;20804;-83
2023/06/30 03:22:46;;;;;;;11.75;10.55;;;19.60;99.90;;;;;;5059814;28;20395;-83
2023/06/30 03:25:12;;;;;;;12.37;11.17;;;19.60;99.90;;;;;;5079328;28;20584;-84
2023/06/30 03:27:37;;;;;;;11.40;10.20;;;19.50;99.90;;;;;;5079268;28;20436;-84
2023/06/30 03:30:04;;;;;;;12.25;11.15;;;19.60;99.90;;;;;;5061066;28;20376;-83
2023/06/30 03:32:31;;;;;;;13.43;11.30;;;19.50;99.90;;;;;;5057252;28;20396;-83
2023/06/30 03:34:56;;;;;;;12.75;11.45;;;19.30;99.90;;;;;;5076768;28;20388;-83
2023/06/30 03:37:22;;;;;;;12.60;11.30;;;18.40;99.90;;;;;;5076061;28;20407;-84
2023/06/30 03:39:47;;;;;;;12.10;10.90;;;19.10;99.90;;;;;;5061938;28;20402;-84
2023/06/30 03:42:13;;;;;;;18.37;13.17;;;18.90;99.90;;;;;;5080961;28;20398;-84
2023/06/30 03:44:38;;;;;;;15.43;13.80;;;18.70;99.90;;;;;;5081108;28;20471;-84
2023/06/30 03:47:04;;;;;;;17.45;14.07;;;18.60;99.90;;;;;;5061354;28;20476;-83
2023/06/30 03:49:30;;;;;;;15.95;13.38;;;18.70;99.90;;;;;;5062429;28;20388;-83
2023/06/30 03:51:55;;;;;;;14.63;13.13;;;18.50;99.90;;;;;;5075374;28;20443;-84
2023/06/30 03:54:21;;;;;;;18.42;12.98;;;18.50;99.90;;;;;;5073276;28;20494;-84
2023/06/30 03:56:47;;;;;;;14.60;13.10;;;18.40;99.90;;;;;;5085404;28;20773;-84
2023/06/30 03:59:12;;;;;;;15.27;12.50;;;18.50;99.90;;;;;;5082584;28;20416;-83
2023/06/30 04:01:39;;;;;;;15.38;13.57;;;18.50;99.90;;;;;;5081326;28;20399;-84
2023/06/30 04:04:05;;;;;;;14.98;13.48;;;18.50;99.90;;;;;;5062497;28;20419;-84
2023/06/30 04:06:33;;;;;;;18.42;15.45;;;18.50;99.90;;;;;;5056641;28;20396;-84
2023/06/30 04:09:01;;;;;;;16.52;14.82;;;18.50;99.90;;;;;;5077086;28;20383;-84
2023/06/30 04:11:27;;;;;;;16.17;12.77;;;18.60;99.90;;;;;;5075022;28;20395;-85
2023/06/30 04:13:52;;;;;;;14.30;12.90;;;18.40;99.90;;;;;;5060454;28;20395;-84
2023/06/30 04:16:18;;;;;;;14.02;12.63;;;18.40;99.90;;;;;;5076311;28;20415;-84
2023/06/30 04:18:44;;;;;;;14.85;13.18;;;18.50;99.90;;;;;;5077290;28;20391;-84
2023/06/30 04:21:09;;;;;;;14.07;12.60;;;18.40;99.90;;;;;;5078090;28;20386;-84
2023/06/30 04:23:36;;;;;;;16.77;13.73;;;18.30;99.90;;;;;;5058279;28;20882;-84
2023/06/30 04:26:04;;;;;;;15.25;13.75;;;18.30;99.90;;;;;;5076553;28;20856;-84
2023/06/30 04:28:30;;;;;;;16.67;14.98;;;18.30;99.90;;;;;;5059754;28;20426;-84
2023/06/30 04:30:56;;;;;;;15.75;14.05;;;18.40;99.90;;;;;;5078981;28;20390;-83
2023/06/30 04:33:21;;;;;;;16.38;14.77;;;18.40;99.90;;;;;;5077712;28;20388;-83
2023/06/30 04:35:47;;;;;;;17.03;15.23;;;18.40;99.90;;;;;;5059402;28;20437;-84
2023/06/30 04:38:12;;;;;;;15.38;13.85;;;18.50;99.90;;;;;;5058703;28;20411;-84
2023/06/30 04:40:38;;;;;;;14.67;13.17;;;18.40;99.90;;;;;;5057805;28;20962;-84
2023/06/30 04:43:11;;;;;;;18.87;15.87;;;18.40;99.90;;;;;;5076597;28;20872;-84
2023/06/30 04:45:36;;;;;;;15.73;14.13;;;18.50;99.90;;;;;;5076243;28;20441;-84
2023/06/30 04:48:02;;;;;;;20.10;15.77;;;18.50;99.90;;;;;;5057784;28;20392;-84
2023/06/30 04:50:27;;;;;;;17.93;14.70;;;18.50;99.90;;;;;;5060998;28;20392;-83
2023/06/30 04:52:53;;;;;;;17.67;15.85;;;18.50;99.90;;;;;;5063622;28;20482;-84
2023/06/30 04:55:18;;;;;;;15.47;13.83;;;18.50;99.90;;;;;;5079280;28;20459;-84
2023/06/30 04:57:44;;;;;;;17.15;15.45;;;18.30;99.90;;;;;;5063120;28;20404;-83
2023/06/30 05:00:10;;;;;;;17.30;14.70;;;18.50;99.90;;;;;;5082828;28;20388;-83
2023/06/30 05:02:36;;;;;;;17.10;15.37;;;18.30;99.90;;;;;;5063542;28;20396;-83
2023/06/30 05:05:01;;;;;;;18.97;15.83;;;18.40;99.90;;;;;;5075883;28;20398;-84
2023/06/30 05:07:27;;;;;;;15.48;13.88;;;18.40;99.90;;;;;;5082820;28;20380;-83
2023/06/30 05:09:57;;;;;;;17.40;14.10;;;18.30;99.90;;;;;;5097162;28;20399;-81
2023/06/30 05:12:22;;;;;;;18.43;15.00;;;18.40;99.90;;;;;;5083747;28;20384;-81
2023/06/30 05:14:49;;;;;;;17.10;15.27;;;18.30;99.90;;;;;;5060849;28;20757;-82
2023/06/30 05:17:14;;;;;;;18.00;15.57;;;18.40;99.90;;;;;;5048207;28;20851;-84
2023/06/30 05:19:41;;;;;;;19.15;15.38;;;18.40;99.90;;;;;;5058236;28;20439;-83
2023/06/30 05:22:07;;;;;;;16.48;14.73;;;18.30;99.90;;;;;;5057113;28;20843;-83
2023/06/30 05:24:33;;;;;;;19.42;15.48;;;18.30;99.90;;;;;;5038376;28;20464;-85
2023/06/30 05:26:59;;;;;;;17.30;15.50;;;18.40;99.90;;;;;;5062157;28;20387;-82
2023/06/30 05:29:25;;;;;;;17.35;14.90;;;18.40;99.90;;;;;;5056458;28;20389;-82
2023/06/30 05:31:51;;;;;;;16.50;14.80;;;18.40;99.90;;;;;;5058309;28;20515;-80
2023/06/30 05:34:16;;;;;;;16.40;14.13;;;18.30;99.90;;;;;;5040067;28;20782;-83
2023/06/30 05:36:44;;;;;;;18.43;14.60;;;18.30;99.90;;;;;;5037469;28;20406;-81
2023/06/30 05:39:10;;;;;;;18.50;15.52;;;18.30;99.90;;;;;;5068674;28;20390;-82
2023/06/30 05:41:35;;;;;;;15.73;14.23;;;18.30;99.90;;;;;;5052969;28;20382;-83
2023/06/30 05:44:01;;;;;;;14.82;13.43;;;18.50;99.90;;;;;;5068818;28;20402;-83
2023/06/30 05:46:26;;;;;;;15.70;14.10;;;18.40;99.90;;;;;;5075092;28;20384;-84
2023/06/30 05:48:52;;;;;;;15.90;13.90;;;18.30;99.90;;;;;;5057147;28;20937;-83
2023/06/30 05:51:18;;;;;;;16.03;14.43;;;18.40;99.90;;;;;;5073646;28;20380;-83
2023/06/30 05:53:43;;;;;;;16.40;14.70;;;18.30;99.90;;;;;;5057680;28;20878;-83
2023/06/30 05:56:09;;;;;;;15.20;13.60;;;18.40;99.90;;;;;;5047148;28;20440;-84
2023/06/30 05:58:37;;;;;;;18.00;14.07;;;18.40;99.90;;;;;;5038248;28;20588;-82
2023/06/30 06:01:03;;;;;;;15.38;12.80;;;18.40;99.90;;;;;;5054491;28;20875;-83
2023/06/30 06:03:30;;;;;;;14.63;13.13;;;18.50;99.90;;;;;;5050791;28;20391;-83
2023/06/30 06:05:56;;;;;;;14.75;13.25;;;18.40;99.90;;;;;;5056475;28;20395;-82
2023/06/30 06:08:22;;;;;;;14.13;12.63;;;18.40;99.90;;;;;;5074952;28;20789;-83
2023/06/30 06:10:48;;;;;;;13.13;11.50;;;18.50;99.90;;;;;;5055115;28;20893;-81
2023/06/30 06:13:31;;;;;;;13.32;11.93;;;18.50;99.90;;;;;;5054427;28;20389;-82
2023/06/30 06:15:56;;;;;;;14.15;12.00;;;18.50;99.90;;;;;;5037803;28;20397;-82
2023/06/30 06:18:22;;;;;;;15.52;12.75;;;18.30;99.90;;;;;;5037448;28;20397;-82
2023/06/30 06:20:48;;;;;;;15.20;12.90;;;18.30;99.90;;;;;;5039660;28;20388;-81
2023/06/30 06:23:13;;;;;;;12.70;10.57;;;18.30;99.90;;;;;;5075467;28;20384;-81
2023/06/30 06:25:39;;;;;;;11.97;10.77;;;18.20;99.90;;;;;;5082066;28;20749;-83
2023/06/30 06:28:04;;;;;;;12.40;11.20;;;18.10;99.90;;;;;;5057333;28;20398;-83
2023/06/30 06:30:30;;;;;;;12.70;11.27;;;18.10;99.90;;;;;;5075265;28;20803;-83
2023/06/30 06:32:55;;;;;;;14.87;11.20;;;18.00;99.90;;;;;;5055993;28;20398;-83
2023/06/30 06:35:21;;;;;;;13.75;11.00;;;18.00;99.90;;;;;;5035525;28;20405;-84
2023/06/30 06:37:46;;;;;;;13.43;11.43;;;18.00;99.90;;;;;;5054263;28;20767;-82
2023/06/30 06:40:12;;;;;;;15.85;11.77;;;17.90;99.90;;;;;;5035687;28;20388;-83
2023/06/30 06:42:37;;;;;;;13.63;11.50;;;17.90;99.90;;;;;;5045479;28;20388;-82
2023/06/30 06:45:03;;;;;;;15.37;11.83;;;17.80;99.90;;;;;;5073526;28;20393;-82
2023/06/30 06:48:06;;;;;;;15.15;12.50;;;17.90;99.90;;;;;;5073416;28;20392;-83
2023/06/30 06:50:32;;;;;;;14.98;11.93;;;17.80;99.90;;;;;;5074450;28;20932;-83
2023/06/30 06:52:57;;;;;;;14.70;11.68;;;17.80;99.90;;;;;;5045122;28;20480;-83
2023/06/30 06:55:23;;;;;;;14.50;11.67;;;17.80;99.90;;;;;;5054387;28;20389;-84
2023/06/30 06:57:48;;;;;;;15.33;12.40;;;17.80;99.90;;;;;;5036201;28;20451;-83
2023/06/30 07:00:16;;;;;;;14.45;11.82;;;17.80;99.90;;;;;;5042417;28;20399;-83
2023/06/30 07:02:41;;;;;;;14.88;11.73;;;17.70;99.90;;;;;;5075395;28;20403;-83
2023/06/30 07:05:07;;;;;;;14.60;11.25;;;17.80;99.90;;;;;;5073992;28;20383;-83
2023/06/30 07:07:32;;;;;;;15.10;12.17;;;17.80;99.90;;;;;;5073593;28;20380;-83
2023/06/30 07:09:58;;;;;;;14.90;11.80;;;17.80;99.90;;;;;;5093833;28;20383;-85
2023/06/30 07:12:23;;;;;;;13.88;11.93;;;17.80;99.90;;;;;;5077557;28;20377;-85
2023/06/30 07:14:49;;;;;;;15.63;11.50;;;17.80;99.90;;;;;;5049062;28;20945;-83
2023/06/30 07:17:14;;;;;;;14.10;11.23;;;17.80;99.90;;;;;;5069785;28;20415;-83
2023/06/30 07:19:41;;;;;;;13.73;11.47;;;17.80;99.90;;;;;;5053154;28;20433;-83
2023/06/30 07:22:07;;;;;;;16.63;12.07;;;17.80;99.90;;;;;;5054506;28;20387;-83
2023/06/30 07:24:32;;;;;;;13.77;11.90;;;17.90;99.90;;;;;;5054364;28;20468;-83
2023/06/30 07:26:58;;;;;;;14.02;11.80;;;17.90;99.90;;;;;;5037587;28;20930;-83
2023/06/30 07:29:24;;;;;;;17.92;12.60;;;17.90;99.90;;;;;;5035050;28;20759;-83
2023/06/30 07:31:50;;;;;;;16.52;12.85;;;17.90;99.90;;;;;;5075761;28;20460;-83
2023/06/30 07:34:18;;;;;;;14.90;12.23;;;17.90;99.90;;;;;;5083218;28;20388;-84
2023/06/30 07:36:47;;;;;;;14.85;12.13;;;17.90;99.90;;;;;;5056668;28;20416;-83
2023/06/30 07:39:12;;;;;;;16.00;12.52;;;17.90;99.90;;;;;;5075617;28;20392;-83
2023/06/30 07:41:38;;;;;;;15.30;12.20;;;18.00;99.90;;;;;;5074706;28;20383;-83
2023/06/30 07:44:04;;;;;;;15.18;12.80;;;18.30;99.90;;;;;;5075080;28;20380;-83
2023/06/30 07:46:30;;;;;;;13.00;11.50;;;18.00;99.90;;;;;;5053890;28;20393;-83
2023/06/30 07:48:56;;;;;;;16.17;12.50;;;18.00;99.90;;;;;;5038136;28;20891;-83
2023/06/30 07:51:22;;;;;;;12.73;11.32;;;18.20;99.90;;;;;;5055969;28;20795;-83
2023/06/30 07:53:48;;;;;;;15.38;11.75;;;18.10;99.90;;;;;;5037244;28;20389;-83
2023/06/30 07:56:13;;;;;;;13.75;11.15;;;18.20;99.90;;;;;;5053978;28;20884;-83
2023/06/30 07:58:39;;;;;;;16.27;12.10;;;18.30;99.90;;;;;;5074211;28;20441;-83
2023/06/30 08:01:04;;;;;;;13.20;10.98;;;18.40;99.90;;;;;;5057297;28;20451;-83
2023/06/30 08:03:30;;;;;;;13.97;11.57;;;18.30;99.90;;;;;;5074721;28;20407;-83
2023/06/30 08:05:56;;;;;;;11.30;10.10;;;18.40;99.90;;;;;;5070824;28;20444;-83
2023/06/30 08:08:23;;;;;;;12.18;10.65;;;18.60;99.90;;;;;;5036035;28;20438;-83
2023/06/30 08:10:48;;;;;;;12.82;10.05;;;18.50;99.90;;;;;;5047454;28;20408;-83
2023/06/30 08:13:14;;;;;;;12.52;10.13;;;18.50;99.90;;;;;;5057821;28;20380;-83
2023/06/30 08:15:39;;;;;;;12.60;10.13;;;18.70;99.90;;;;;;5086060;22;20770;-82
2023/06/30 08:18:05;;;;;;;11.88;9.70;;;18.80;99.90;;;;;;5094184;28;20481;-81
2023/06/30 08:20:31;;;;;;;10.87;9.77;;;20.30;99.90;;;;;;5092965;28;20386;-80
2023/06/30 08:22:56;;;;;;;11.60;9.67;;;18.80;99.90;;;;;;5102986;28;20385;-81
2023/06/30 08:25:24;;;;;;;13.93;10.33;;;18.90;99.90;;;;;;5116649;28;20411;-81
2023/06/30 08:27:49;;;;;;;14.25;9.80;;;19.00;99.90;;;;;;5130475;28;20451;-80
2023/06/30 08:30:15;;;;;;;11.82;9.95;;;19.10;99.90;;;;;;5131420;28;20470;-79
2023/06/30 08:32:42;;;;;;;10.83;8.70;;;19.20;99.90;;;;;;5098488;28;20409;-81
2023/06/30 08:35:07;;;;;;;10.95;8.77;;;19.30;99.90;;;;;;5131767;28;20392;-79
2023/06/30 08:37:33;;;;;;;10.20;9.10;;;19.20;99.90;;;;;;5120370;28;20405;-83
2023/06/30 08:40:00;;;;;;;10.98;9.50;;;19.10;99.90;;;;;;5087108;28;20390;-85
2023/06/30 08:42:30;;;;;;;10.20;8.75;;;19.20;99.90;;;;;;5111405;28;20403;-82
2023/06/30 08:44:57;;;;;;;10.80;9.07;;;19.20;99.90;;;;;;5094613;28;20382;-82
2023/06/30 08:47:25;;;;;;;11.07;9.07;;;19.30;99.90;;;;;;5095371;28;20440;-81
2023/06/30 08:49:52;;;;;;;10.55;8.65;;;19.20;99.90;;;;;;5095201;28;20598;-81
2023/06/30 08:52:18;;;;;;;12.52;9.20;;;19.10;99.90;;;;;;5100675;28;20389;-83
2023/06/30 08:54:44;;;;;;;11.75;9.65;;;19.30;99.90;;;;;;5098369;28;20438;-82
2023/06/30 08:57:15;;;;;;;12.47;9.53;;;19.20;99.90;;;;;;5096983;28;20402;-82
2023/06/30 08:59:42;;;;;;;13.00;10.10;;;19.00;99.90;;;;;;5078804;28;20409;-82
2023/06/30 09:02:08;;;;;;;11.82;9.88;;;20.10;99.90;;;;;;5082763;28;20469;-81
2023/06/30 09:04:36;;;;;;;12.05;9.90;;;19.90;99.90;;;;;;5118438;28;20427;-79
2023/06/30 09:07:04;;;;;;;12.03;10.23;;;19.80;99.90;;;;;;5100139;28;20413;-80
2023/06/30 09:09:53;;;;;;;11.48;10.20;;;19.80;99.90;;;;;;5100567;28;20395;-80
2023/06/30 09:12:19;;;;;;;13.45;10.52;;;19.90;99.90;;;;;;5100901;28;20378;-82
2023/06/30 09:14:45;;;;;;;13.30;10.95;;;19.90;99.90;;;;;;5078728;28;20776;-81
2023/06/30 09:17:11;;;;;;;12.50;10.75;;;20.10;99.90;;;;;;5095864;28;20874;-82
2023/06/30 09:19:38;;;;;;;13.80;10.50;;;20.20;99.90;;;;;;5078636;28;20382;-81
2023/06/30 09:22:05;;;;;;;12.57;10.43;;;20.20;99.90;;;;;;5096794;28;20385;-81
2023/06/30 09:24:30;;;;;;;13.60;11.60;;;20.40;99.90;;;;;;5078358;28;20386;-81
2023/06/30 09:26:56;;;;;;;14.27;10.98;;;20.30;99.90;;;;;;5096157;28;20876;-81
2023/06/30 09:29:23;;;;;;;13.93;11.03;;;20.60;99.90;;;;;;5096562;28;20377;-81
2023/06/30 09:31:52;;;;;;;15.38;12.23;;;20.70;99.90;;;;;;5096868;28;20434;-81
2023/06/30 09:34:21;;;;;;;14.05;11.55;;;20.80;99.90;;;;;;5102738;28;20884;-81
2023/06/30 09:36:48;;;;;;;15.60;12.03;;;20.70;99.90;;;;;;5093662;28;20959;-80
2023/06/30 09:39:15;;;;;;;16.45;13.23;;;20.60;99.90;;;;;;5095788;28;20784;-80
2023/06/30 09:41:45;;;;;;;14.45;12.40;;;20.40;99.90;;;;;;5076984;28;20400;-79
2023/06/30 09:44:12;;;;;;;15.43;12.38;;;20.40;99.90;;;;;;5095335;28;20386;-80
2023/06/30 09:46:48;;;;;;;13.73;11.55;;;20.40;99.90;;;;;;5094504;28;20378;-80
2023/06/30 09:49:28;;;;;;;14.98;12.38;;;20.40;99.90;;;;;;5077055;28;20390;-80
2023/06/30 09:51:56;;;;;;;15.50;12.43;;;20.70;99.90;;;;;;5077169;28;20459;-80
2023/06/30 09:54:22;;;;;;;13.50;12.05;;;20.60;99.90;;;;;;5076389;28;20496;-80
2023/06/30 09:56:59;;;;;;;15.70;12.30;;;20.80;99.90;;;;;;5076061;28;20409;-80
2023/06/30 09:59:26;;;;;;;15.88;12.15;;;20.90;99.90;;;;;;5094766;28;20410;-80
2023/06/30 10:01:55;;;;;;;16.38;12.40;;;20.90;99.90;;;;;;5076617;28;20379;-78
2023/06/30 10:04:21;;;;;;;14.60;12.35;;;20.70;99.90;;;;;;5076338;28;20778;-81
2023/06/30 10:06:54;;;;;;;14.90;12.15;;;20.60;99.90;;;;;;5093591;28;20390;-79
2023/06/30 10:09:21;;;;;;;13.93;11.43;;;20.40;99.90;;;;;;5076171;28;20955;-79
2023/06/30 10:11:52;;;;;;;14.82;12.95;;;20.30;99.90;;;;;;5094459;28;20391;-79
2023/06/30 10:14:20;;;;;;;14.80;11.80;;;20.20;99.90;;;;;;5078554;28;20378;-79
2023/06/30 10:16:47;;;;;;;17.27;12.60;;;20.20;99.90;;;;;;5075685;28;20853;-80
2023/06/30 10:19:14;;;;;;;15.82;11.98;;;20.30;99.90;;;;;;5075906;28;20378;-79
2023/06/30 10:21:40;;;;;;;15.00;12.10;;;20.60;99.90;;;;;;5094255;28;20393;-79
2023/06/30 10:24:09;;;;;;;16.38;12.05;;;20.60;99.90;;;;;;5094802;28;21061;-80
2023/06/30 10:26:36;;;;;;;14.90;13.02;;;20.70;99.90;;;;;;5075017;28;20524;-79
2023/06/30 10:29:03;;;;;;;14.27;11.80;;;21.00;99.90;;;;;;5094044;28;20389;-80
2023/06/30 10:31:30;;;;;;;16.38;11.98;;;21.30;99.90;;;;;;5075526;28;20386;-79
2023/06/30 10:33:56;;;;;;;17.63;12.38;;;21.10;99.90;;;;;;5075305;28;20468;-79
2023/06/30 10:36:23;;;;;;;15.55;12.30;;;21.20;99.90;;;;;;5092966;28;20496;-80
2023/06/30 10:38:48;;;;;;;15.40;11.73;;;21.20;99.90;;;;;;5094137;28;20382;-79
2023/06/30 10:41:17;;;;;;;16.25;12.95;;;21.30;99.90;;;;;;5075752;28;20814;-80
2023/06/30 10:44:01;;;;;;;13.50;11.20;;;21.50;99.90;;;;;;5075465;28;20416;-80
2023/06/30 10:46:55;;;;;;;15.75;11.18;;;21.60;99.90;;;;;;5092914;28;20378;-80
2023/06/30 10:49:30;;;;;;;14.38;11.95;;;21.60;99.90;;;;;;5091169;28;20488;-81
2023/06/30 10:51:57;;;;;;;15.18;12.38;;;21.50;99.90;;;;;;5093560;28;20406;-80
2023/06/30 10:54:28;;;;;;;13.30;10.82;;;21.70;99.90;;;;;;5093532;28;20413;-80
2023/06/30 10:57:15;;;;;;;12.87;10.50;;;21.20;99.90;;;;;;5092500;28;20401;-80
2023/06/30 10:59:45;;;;;;;13.65;10.73;;;21.40;99.90;;;;;;5075174;28;20464;-80
2023/06/30 11:02:22;;;;;;;13.60;11.00;;;21.40;99.90;;;;;;5075357;28;20383;-81
2023/06/30 11:04:50;;;;;;;14.30;10.33;;;21.50;99.90;;;;;;5075507;28;20375;-81
2023/06/30 11:07:23;;;;;;;13.98;10.20;;;21.50;99.90;;;;;;5092893;28;20413;-81
2023/06/30 11:09:49;;;;;;;14.15;10.25;;;21.60;99.90;;;;;;5095078;28;20413;-80
2023/06/30 11:12:28;;;;;;;12.53;10.03;;;21.50;99.90;;;;;;5100874;28;20729;-81
2023/06/30 11:14:58;;;;;;;11.52;9.60;;;21.80;99.90;;;;;;5076158;28;20425;-81
2023/06/30 11:17:48;;;;;;;11.37;9.93;;;21.80;99.90;;;;;;5093626;28;20420;-81
2023/06/30 11:20:14;;;;;;;11.77;9.82;;;21.50;99.90;;;;;;5075467;28;20781;-81
2023/06/30 11:22:40;;;;;;;13.75;10.90;;;21.50;99.90;;;;;;5075543;28;20822;-82
2023/06/30 11:33:51;;;;;;;14.82;11.93;;;21.60;99.90;;;;;;5061554;28;20437;-81
2023/06/30 11:36:18;;;;;;;12.98;10.45;;;21.30;99.90;;;;;;5094014;28;20408;-81
2023/06/30 11:38:50;;;;;;;13.43;11.60;;;21.80;99.90;;;;;;5113054;28;20469;-81
2023/06/30 11:41:20;;;;;;;14.48;11.77;;;22.20;99.90;;;;;;5094915;28;20429;-82
2023/06/30 11:43:59;;;;;;;14.65;12.13;;;22.00;99.90;;;;;;5113521;28;20383;-81
2023/06/30 11:46:24;;;;;;;13.65;11.43;;;22.40;99.90;;;;;;5112818;28;20471;-82
2023/06/30 11:48:55;;;;;;;12.38;10.90;;;22.70;99.90;;;;;;5113052;28;20457;-81
2023/06/30 11:51:21;;;;;;;14.65;12.88;;;22.60;99.90;;;;;;5113017;28;20434;-79
2023/06/30 11:53:51;;;;;;;12.80;11.20;;;22.70;99.90;;;;;;5106190;28;20393;-80
2023/06/30 11:56:22;;;;;;;13.18;11.70;;;23.60;99.90;;;;;;5101225;28;20407;-80
2023/06/30 12:02:14;;;;;;;12.10;10.68;;;22.40;99.90;;;;;;5106492;28;20390;-84
2023/06/30 12:04:46;;;;;;;12.40;9.90;;;21.70;99.90;;;;;;5092372;28;20388;-83
2023/06/30 12:07:15;;;;;;;12.73;10.40;;;21.80;99.90;;;;;;5098687;28;20473;-83
2023/06/30 12:09:43;;;;;;;12.23;9.93;;;21.80;99.90;;;;;;5118161;28;20476;-84
2023/06/30 12:12:09;;;;;;;12.80;11.15;;;21.70;99.90;;;;;;5092900;27;20392;-83
2023/06/30 12:14:41;;;;;;;13.52;10.80;;;23.00;99.90;;;;;;5113600;27;20394;-84
2023/06/30 12:17:11;;;;;;;12.73;10.82;;;23.00;99.90;;;;;;5095373;28;20428;-83
2023/06/30 12:19:37;;;;;;;14.10;12.10;;;22.00;99.90;;;;;;5097364;28;20396;-84
2023/06/30 12:22:03;;;;;;;14.88;12.15;;;21.10;99.90;;;;;;5097922;28;20792;-85
2023/06/30 12:24:33;;;;;;;12.70;11.30;;;22.30;99.90;;;;;;5097967;28;20392;-85
2023/06/30 12:27:03;;;;;;;13.43;10.50;;;22.30;99.90;;;;;;5096227;28;20385;-83
2023/06/30 12:29:30;;;;;;;12.32;10.98;;;22.00;99.90;;;;;;5097694;28;20798;-83
2023/06/30 12:31:56;;;;;;;14.63;12.02;;;21.70;99.90;;;;;;5107324;28;20475;-84
2023/06/30 12:34:35;;;;;;;14.20;12.18;;;21.70;99.90;;;;;;5079912;28;20386;-85
2023/06/30 12:37:02;;;;;;;12.45;10.48;;;21.10;99.90;;;;;;5102586;28;20511;-84
2023/06/30 12:39:28;;;;;;;12.40;10.48;;;20.50;99.90;;;;;;5109034;28;20375;-86
2023/06/30 12:41:53;;;;;;;13.20;10.77;;;20.10;99.90;;;;;;5116703;28;20463;-85